Time;durP1;ratioP1;P1;durP2;ratioP2;P2;SDS_P1;SDS_P2;PMS_P1;PMS_P2;Temp;Humidity;BMP_temperature;BMP_pressure;BME280_temperature;BME280_humidity;BME280_pressure;Samples;Min_cycle;Max_cycle;Signal;HPM_P1;HPM_P2
2023/04/16 00:00:02;;;;;;;5.72;2.40;;;;;;;26.77;41.35;100969.66;20973985;28;20082;-75
2023/04/16 00:10:03;;;;;;;5.75;2.20;;;;;;;26.80;41.71;100963.41;20981211;28;20036;-71
2023/04/16 00:20:05;;;;;;;4.90;2.53;;;;;;;26.77;41.14;100966.84;20992084;28;20045;-71
2023/04/16 00:30:10;;;;;;;6.72;2.22;;;;;;;26.81;40.96;101004.34;20999258;28;20103;-70
2023/04/16 00:40:14;;;;;;;7.93;2.30;;;;;;;26.82;40.88;100994.78;21008007;28;20099;-71
2023/04/16 00:50:18;;;;;;;4.65;2.17;;;;;;;26.85;40.97;100999.75;21006850;28;20479;-72
2023/04/16 01:00:20;;;;;;;4.03;1.98;;;;;;;26.84;40.62;100988.84;21006166;28;20048;-71
2023/04/16 01:10:21;;;;;;;4.15;2.13;;;;;;;26.88;40.46;101003.88;21006333;28;20376;-70
2023/04/16 01:20:23;;;;;;;7.32;2.78;;;;;;;26.83;40.29;100996.44;21005401;28;20052;-71
2023/04/16 01:30:27;;;;;;;4.93;2.15;;;;;;;26.89;40.29;101005.53;21003109;28;20117;-70
2023/04/16 01:40:28;;;;;;;5.30;2.13;;;;;;;26.86;40.25;101007.03;21001730;28;20045;-71
2023/04/16 01:50:30;;;;;;;5.80;2.20;;;;;;;26.86;39.99;100984.56;21002329;28;20032;-71
2023/04/16 02:00:32;;;;;;;4.03;2.20;;;;;;;26.82;40.15;100966.69;21001306;28;20048;-71
2023/04/16 02:10:33;;;;;;;4.25;1.95;;;;;;;26.88;39.82;100970.19;21001068;28;20044;-71
2023/04/16 02:20:39;;;;;;;3.45;1.95;;;;;;;26.85;39.75;100954.00;20999611;28;20102;-71
2023/04/16 02:30:41;;;;;;;4.80;1.80;;;;;;;26.89;39.82;100928.91;20996755;28;20101;-71
2023/04/16 02:40:42;;;;;;;2.47;2.00;;;;;;;26.79;39.61;100882.28;20988376;28;20048;-71
2023/04/16 02:50:44;;;;;;;2.58;1.70;;;;;;;26.73;39.48;100873.19;20996720;28;20048;-71
2023/04/16 03:00:45;;;;;;;2.40;2.08;;;;;;;26.56;39.61;100845.00;20994418;28;20097;-71
2023/04/16 03:10:46;;;;;;;3.28;1.70;;;;;;;26.83;39.82;100875.69;20980934;28;20486;-73
2023/04/16 03:20:51;;;;;;;3.25;1.90;;;;;;;26.78;39.59;100867.41;20980646;28;20052;-73
2023/04/16 03:30:53;;;;;;;1.70;1.55;;;;;;;26.67;39.59;100852.03;20975117;28;20429;-72
2023/04/16 03:40:54;;;;;;;3.58;1.80;;;;;;;26.80;39.79;100869.91;20973772;28;20048;-73
2023/04/16 03:50:55;;;;;;;4.05;1.67;;;;;;;26.60;39.70;100840.41;20976479;28;20044;-73
2023/04/16 04:00:57;;;;;;;10.30;2.17;;;;;;;26.71;39.82;100900.75;20979375;28;20098;-72
2023/04/16 04:10:58;;;;;;;3.35;1.60;;;;;;;26.80;39.17;100935.31;20957788;28;20098;-75
2023/04/16 04:21:03;;;;;;;5.18;2.20;;;;;;;26.71;39.38;100942.88;20934173;28;20052;-76
2023/04/16 04:31:05;;;;;;;4.40;1.70;;;;;;;26.80;39.30;101008.31;20947306;28;20049;-77
2023/04/16 04:41:06;;;;;;;3.38;1.95;;;;;;;26.72;38.96;101006.28;20989909;28;20080;-77
2023/04/16 04:51:07;;;;;;;3.03;1.70;;;;;;;26.80;38.96;100994.28;20989480;28;20040;-77
2023/04/16 05:01:09;;;;;;;4.25;1.83;;;;;;;26.78;38.44;100993.75;20984185;28;20067;-77
2023/04/16 05:11:13;;;;;;;3.13;1.88;;;;;;;26.74;38.76;100967.47;20987042;28;20036;-76
2023/04/16 05:21:15;;;;;;;3.00;1.83;;;;;;;26.76;38.41;100923.06;21003894;28;20048;-77
2023/04/16 05:31:16;;;;;;;3.03;1.77;;;;;;;26.52;38.72;100902.94;21002016;28;20478;-77
2023/04/16 05:41:20;;;;;;;2.55;1.55;;;;;;;26.54;38.46;100906.25;20965109;28;20045;-77
2023/04/16 05:51:24;;;;;;;2.17;1.50;;;;;;;26.74;38.31;100945.00;20971195;28;20117;-76
2023/04/16 06:01:28;;;;;;;2.08;1.77;;;;;;;26.54;38.59;100909.06;20981492;28;20098;-76
2023/04/16 06:11:29;;;;;;;2.65;1.67;;;;;;;26.72;37.95;100933.28;21000896;28;20405;-77
2023/04/16 06:21:31;;;;;;;2.75;1.60;;;;;;;26.70;38.02;100924.34;20980593;28;20048;-77
2023/04/16 06:31:35;;;;;;;2.22;1.33;;;;;;;26.51;38.27;100881.63;20976031;28;20138;-77
2023/04/16 06:41:36;;;;;;;2.50;1.40;;;;;;;26.61;37.99;100903.81;20996382;28;20048;-77
2023/04/16 06:51:38;;;;;;;3.78;1.52;;;;;;;26.51;38.27;100887.25;20995133;28;20045;-76
2023/04/16 07:01:42;;;;;;;3.85;1.73;;;;;;;26.65;38.06;100918.03;20961641;28;20070;-76
2023/04/16 07:11:46;;;;;;;1.67;1.27;;;;;;;26.63;37.69;100907.13;20973446;28;20561;-78
2023/04/16 07:21:47;;;;;;;1.77;1.38;;;;;;;26.59;37.69;100912.56;20992185;28;20144;-75
2023/04/16 07:31:51;;;;;;;2.70;1.50;;;;;;;26.59;37.66;100889.28;20993369;28;20045;-75
2023/04/16 07:41:53;;;;;;;2.20;1.35;;;;;;;26.56;37.56;100878.69;20991449;28;20093;-77
2023/04/16 07:51:54;;;;;;;2.00;1.48;;;;;;;26.53;37.05;100860.53;20976067;28;20049;-77
2023/04/16 08:01:57;;;;;;;1.60;1.33;;;;;;;26.51;36.26;100848.78;20992225;28;20509;-78
2023/04/16 08:11:59;;;;;;;2.13;1.55;;;;;;;26.50;36.74;100829.47;20991309;28;20037;-77
2023/04/16 08:22:01;;;;;;;1.38;1.27;;;;;;;26.46;36.55;100834.06;20958069;28;20044;-77
2023/04/16 08:32:02;;;;;;;2.58;1.80;;;;;;;26.40;36.52;100854.97;20952205;28;20052;-76
2023/04/16 08:42:05;;;;;;;2.03;1.45;;;;;;;26.28;36.10;100847.94;20955404;28;20564;-77
2023/04/16 08:52:13;;;;;;;2.55;1.52;;;;;;;26.23;36.03;100881.75;20961290;28;20125;-76
2023/04/16 09:02:15;;;;;;;1.52;1.42;;;;;;;26.28;35.93;100894.81;21005038;28;20491;-77
2023/04/16 09:12:19;;;;;;;1.88;1.60;;;;;;;26.24;35.98;100894.63;21004001;28;20040;-76
2023/04/16 09:22:20;;;;;;;1.50;1.40;;;;;;;25.78;35.87;100842.44;20995814;28;20487;-78
2023/04/16 09:32:30;;;;;;;1.67;1.58;;;;;;;26.27;35.96;100938.88;21003355;28;20040;-76
2023/04/16 09:42:36;;;;;;;2.45;1.40;;;;;;;26.36;36.74;100958.56;21001417;28;20045;-76
2023/04/16 09:52:40;;;;;;;2.00;1.80;;;;;;;26.30;37.34;100949.47;20959934;28;20040;-77
2023/04/16 10:02:41;;;;;;;1.70;1.60;;;;;;;26.10;37.59;100916.28;20996804;28;20079;-77
2023/04/16 10:12:45;;;;;;;2.08;1.95;;;;;;;26.35;37.92;100952.16;20981068;28;20052;-76
2023/04/16 10:22:47;;;;;;;2.05;1.80;;;;;;;26.41;38.31;100952.00;20962411;28;20105;-77
2023/04/16 10:32:49;;;;;;;2.10;1.90;;;;;;;26.43;38.30;100958.13;20949423;28;20045;-76
2023/04/16 10:42:58;;;;;;;2.30;2.10;;;;;;;26.43;38.54;100991.78;20978725;28;20041;-78
2023/04/16 10:53:19;;;;;;;3.42;2.55;;;;;;;26.41;38.56;100999.72;20994120;28;20487;-76
2023/04/16 11:03:23;;;;;;;2.38;2.17;;;;;;;26.39;38.96;100990.75;20960925;28;20070;-77
2023/04/16 11:13:25;;;;;;;4.03;2.88;;;;;;;26.49;38.96;101013.03;20971500;28;20044;-78
2023/04/16 11:23:26;;;;;;;3.20;2.65;;;;;;;25.66;39.02;100895.41;20975610;28;20048;-77
2023/04/16 11:33:30;;;;;;;3.05;2.58;;;;;;;26.49;39.36;101027.06;20975068;28;20036;-76
2023/04/16 11:43:32;;;;;;;2.75;1.98;;;;;;;26.45;40.81;101017.59;20949048;28;20098;-76
2023/04/16 11:53:35;;;;;;;4.65;2.35;;;;;;;26.43;40.64;101014.25;20965379;28;20105;-77
2023/04/16 12:03:38;;;;;;;4.97;3.03;;;;;;;26.28;40.32;100979.78;20961540;28;20494;-77
2023/04/16 12:13:39;;;;;;;5.05;3.38;;;;;;;26.51;39.92;101014.34;20962566;28;20064;-77
2023/04/16 12:23:41;;;;;;;3.80;3.15;;;;;;;26.45;39.58;101007.22;20971345;28;20060;-77
2023/04/16 12:34:00;;;;;;;3.20;2.75;;;;;;;26.39;40.13;100990.75;20979143;28;20110;-77
2023/04/16 12:44:16;;;;;;;9.45;2.85;;;;;;;26.53;40.63;101012.06;20956782;28;20142;-76
2023/04/16 12:54:18;;;;;;;7.88;4.82;;;;;;;26.54;40.73;100993.25;20979989;28;20102;-78
2023/04/16 13:04:19;;;;;;;8.30;5.30;;;;;;;26.58;40.78;100999.91;20987390;28;20052;-78
2023/04/16 13:14:20;;;;;;;8.40;6.15;;;;;;;26.51;41.69;100975.06;20982469;28;20033;-78
2023/04/16 13:24:24;;;;;;;9.98;6.03;;;;;;;26.59;41.48;100987.50;20974696;28;20040;-79
2023/04/16 13:34:26;;;;;;;9.40;6.55;;;;;;;26.55;41.24;100992.09;20981084;28;20184;-79
2023/04/16 13:44:27;;;;;;;7.57;6.28;;;;;;;26.63;41.15;100991.34;20951312;28;20556;-80
2023/04/16 13:54:28;;;;;;;11.38;6.88;;;;;;;26.50;41.86;100964.16;20975034;28;20032;-78
2023/04/16 14:04:30;;;;;;;8.68;5.93;;;;;;;26.54;41.35;100948.34;20974009;28;20094;-77
2023/04/16 14:14:31;;;;;;;8.70;5.97;;;;;;;26.55;40.92;100939.59;20982978;28;20398;-80
2023/04/16 14:24:35;;;;;;;9.23;6.50;;;;;;;26.59;41.55;100928.56;20992239;28;20909;-79
2023/04/16 14:34:37;;;;;;;8.07;6.45;;;;;;;26.67;41.62;100936.22;20970181;28;20020;-80
2023/04/16 14:44:38;;;;;;;9.93;7.72;;;;;;;26.68;42.07;100937.88;20990252;28;20044;-79
2023/04/16 14:54:43;;;;;;;7.75;6.72;;;;;;;26.67;42.08;100932.59;20966237;28;20462;-79
2023/04/16 15:04:45;;;;;;;7.53;6.72;;;;;;;26.67;42.33;100952.25;20987508;28;20048;-78
2023/04/16 15:14:46;;;;;;;7.43;6.55;;;;;;;26.64;42.67;100953.69;20982364;28;20142;-79
2023/04/16 15:24:48;;;;;;;7.85;6.78;;;;;;;26.67;42.32;100935.41;20991648;28;20024;-78
2023/04/16 15:34:50;;;;;;;6.53;5.90;;;;;;;26.66;42.61;100909.28;20984341;28;20048;-77
2023/04/16 15:44:54;;;;;;;8.85;7.15;;;;;;;26.53;43.13;100884.97;20977131;28;20048;-78
2023/04/16 15:54:55;;;;;;;9.68;7.95;;;;;;;26.71;43.58;100911.97;20981211;28;20044;-75
2023/04/16 16:04:59;;;;;;;10.25;7.20;;;;;;;26.46;43.63;100862.13;20972151;28;20041;-75
2023/04/16 16:15:03;;;;;;;9.75;7.45;;;;;;;26.57;43.65;100886.81;20969565;28;20074;-76
2023/04/16 16:25:06;;;;;;;8.65;6.55;;;;;;;26.73;43.38;100884.41;20970405;28;20045;-76
2023/04/16 16:35:07;;;;;;;17.92;7.68;;;;;;;26.78;43.17;100887.06;20968195;28;20048;-77
2023/04/16 16:45:09;;;;;;;10.90;6.85;;;;;;;26.80;43.20;100895.16;20988270;28;20612;-77
2023/04/16 16:55:11;;;;;;;8.38;6.25;;;;;;;26.24;43.15;100810.47;20990921;28;20040;-77
2023/04/16 17:05:12;;;;;;;8.95;7.13;;;;;;;26.80;42.64;100890.41;20991563;28;20094;-76
2023/04/16 17:15:14;;;;;;;7.05;6.35;;;;;;;26.66;42.72;100853.16;21003873;28;20032;-77
2023/04/16 17:25:16;;;;;;;8.82;5.68;;;;;;;26.82;42.48;100878.84;20994985;28;20362;-77
2023/04/16 17:35:23;;;;;;;8.63;5.72;;;;;;;26.82;42.56;100865.63;20953535;28;20040;-77
2023/04/16 17:45:24;;;;;;;7.97;5.38;;;;;;;26.83;42.46;100842.00;20998025;28;20036;-77
2023/04/16 17:55:29;;;;;;;7.85;5.95;;;;;;;26.68;42.28;100794.72;21003284;28;20049;-77
2023/04/16 18:05:30;;;;;;;5.88;5.28;;;;;;;26.85;42.26;100803.22;20969566;28;20057;-77
2023/04/16 18:15:37;;;;;;;6.10;5.35;;;;;;;26.79;42.35;100768.00;21001544;28;20054;-77
2023/04/16 18:25:39;;;;;;;6.85;5.22;;;;;;;26.83;41.96;100766.22;20997333;28;20055;-77
2023/04/16 18:35:40;;;;;;;7.38;6.03;;;;;;;26.67;41.53;100728.53;20994891;28;20058;-77
2023/04/16 18:45:45;;;;;;;5.53;4.90;;;;;;;26.90;41.79;100753.69;20998352;28;20074;-77
2023/04/16 18:55:46;;;;;;;5.97;5.00;;;;;;;26.91;41.73;100746.91;20985059;28;20434;-74
2023/04/16 19:05:47;;;;;;;8.50;5.32;;;;;;;26.89;41.87;100721.13;20988367;28;20407;-75
2023/04/16 19:15:48;;;;;;;5.25;4.75;;;;;;;26.76;41.43;100681.66;20981576;28;20475;-76
2023/04/16 19:25:50;;;;;;;6.38;5.13;;;;;;;26.41;41.28;100598.50;20966789;28;20576;-75
2023/04/16 19:35:54;;;;;;;6.95;5.53;;;;;;;26.72;41.41;100618.91;20974941;28;20487;-76
2023/04/16 19:45:55;;;;;;;7.53;4.82;;;;;;;26.97;41.39;100652.94;20987118;28;20041;-76
2023/04/16 19:55:57;;;;;;;4.90;4.38;;;;;;;26.97;41.84;100639.72;20989647;28;20044;-75
2023/04/16 20:05:58;;;;;;;5.90;4.88;;;;;;;26.95;41.81;100633.63;20985233;28;20032;-77
2023/04/16 20:16:03;;;;;;;6.53;4.85;;;;;;;26.47;41.94;100539.13;20992178;28;20037;-80
2023/04/16 20:26:05;;;;;;;5.72;4.82;;;;;;;26.88;42.07;100593.13;20991452;28;20095;-81
2023/04/16 20:36:06;;;;;;;7.80;5.03;;;;;;;26.92;41.79;100591.31;20972662;28;20045;-80
2023/04/16 20:46:09;;;;;;;6.10;5.32;;;;;;;26.99;41.69;100600.09;20992884;28;20056;-80
2023/04/16 20:56:13;;;;;;;5.70;4.90;;;;;;;26.80;41.89;100575.97;21008756;28;20032;-80
2023/04/16 21:06:16;;;;;;;4.20;3.80;;;;;;;27.00;42.08;100576.47;21012582;28;20052;-80
2023/04/16 21:16:17;;;;;;;7.38;4.57;;;;;;;26.83;41.66;100535.19;20991513;28;20057;-80
2023/04/16 21:26:19;;;;;;;7.38;4.95;;;;;;;27.00;42.35;100551.19;21007749;28;20044;-80
2023/04/16 21:36:20;;;;;;;5.63;5.10;;;;;;;26.98;42.19;100556.31;21010564;28;20094;-80
2023/04/16 21:46:21;;;;;;;4.78;4.22;;;;;;;26.99;42.09;100549.56;21014905;28;20044;-78
2023/04/16 21:56:24;;;;;;;6.47;4.75;;;;;;;26.94;42.12;100558.97;21011321;28;20479;-79
2023/04/16 22:06:28;;;;;;;6.95;4.95;;;;;;;27.00;42.50;100556.81;20997302;28;20040;-77
2023/04/16 22:16:32;;;;;;;9.15;4.60;;;;;;;26.96;42.39;100527.75;21004479;28;20041;-81
2023/04/16 22:26:40;;;;;;;5.28;4.45;;;;;;;26.93;42.36;100511.56;21001114;28;20353;-77
2023/04/16 22:36:41;;;;;;;7.40;5.20;;;;;;;27.02;42.34;100526.41;20992758;28;20053;-77
2023/04/16 22:46:43;;;;;;;6.57;4.53;;;;;;;26.86;42.54;100484.81;20994787;28;20045;-76
2023/04/16 22:56:47;;;;;;;9.90;5.32;;;;;;;27.02;42.29;100510.38;20924372;28;1728324;-81
2023/04/16 23:06:49;;;;;;;8.93;5.50;;;;;;;27.04;42.22;100507.25;20987688;28;20106;-78
2023/04/16 23:16:50;;;;;;;9.55;5.13;;;;;;;26.95;41.83;100489.59;20990208;28;20483;-76
2023/04/16 23:26:52;;;;;;;6.07;4.80;;;;;;;26.88;41.99;100497.69;20990833;28;20114;-77
2023/04/16 23:36:56;;;;;;;5.50;4.63;;;;;;;26.43;41.63;100419.44;20993649;28;20024;-77
2023/04/16 23:47:00;;;;;;;7.63;5.20;;;;;;;26.72;41.76;100486.16;20992067;28;20048;-78
2023/04/16 23:57:01;;;;;;;13.20;4.75;;;;;;;26.67;42.33;100484.34;20993450;28;20445;-78
